Time;durP1;ratioP1;P1;durP2;ratioP2;P2;SDS_P1;SDS_P2;PMS_P1;PMS_P2;Temp;Humidity;BMP_temperature;BMP_pressure;BME280_temperature;BME280_humidity;BME280_pressure;Samples;Min_cycle;Max_cycle;Signal;HPM_P1;HPM_P2
2023/01/26 00:01:54;;;;;;;13.35;6.45;;;;;;;;;;4991596;28;20061;-83
2023/01/26 00:04:19;;;;;;;15.35;6.78;;;;;;;;;;5034822;28;20064;-83
2023/01/26 00:06:45;;;;;;;19.40;7.82;;;;;;;;;;5024781;28;20041;-83
2023/01/26 00:09:14;;;;;;;20.30;7.35;;;;;;;;;;5018282;28;20037;-84
2023/01/26 00:11:39;;;;;;;16.13;7.15;;;;;;;;;;5002837;28;20065;-84
2023/01/26 00:14:05;;;;;;;16.65;7.45;;;;;;;;;;5007874;28;20053;-83
2023/01/26 00:16:30;;;;;;;18.50;7.18;;;;;;;;;;5004395;28;20051;-84
2023/01/26 00:18:56;;;;;;;18.98;8.30;;;;;;;;;;5023689;28;20526;-83
2023/01/26 00:21:23;;;;;;;15.70;6.60;;;;;;;;;;5020544;28;20048;-85
2023/01/26 00:23:49;;;;;;;17.00;6.82;;;;;;;;;;5008299;28;20056;-84
2023/01/26 00:26:17;;;;;;;17.80;7.32;;;;;;;;;;5024007;28;20056;-84
2023/01/26 00:28:42;;;;;;;19.00;8.40;;;;;;;;;;5041442;28;20057;-84
2023/01/26 00:31:13;;;;;;;19.92;8.32;;;;;;;;;;5020091;28;20509;-84
2023/01/26 00:33:38;;;;;;;16.48;7.18;;;;;;;;;;5020314;28;20032;-84
2023/01/26 00:36:04;;;;;;;17.10;7.03;;;;;;;;;;5026479;28;20553;-83
2023/01/26 00:38:29;;;;;;;15.70;7.18;;;;;;;;;;5043237;28;20037;-84
2023/01/26 00:40:55;;;;;;;18.58;7.90;;;;;;;;;;5023079;28;20151;-82
2023/01/26 00:43:20;;;;;;;18.80;7.20;;;;;;;;;;5042638;28;20040;-83
2023/01/26 00:45:46;;;;;;;18.40;7.65;;;;;;;;;;5031445;28;20118;-83
2023/01/26 00:48:11;;;;;;;17.33;7.75;;;;;;;;;;5001328;28;20060;-83
2023/01/26 00:50:37;;;;;;;16.63;7.30;;;;;;;;;;5028131;28;20045;-82
2023/01/26 00:53:02;;;;;;;16.77;7.03;;;;;;;;;;5025833;28;20041;-83
2023/01/26 00:55:31;;;;;;;15.48;7.53;;;;;;;;;;5011327;28;20033;-83
2023/01/26 00:58:00;;;;;;;16.83;7.22;;;;;;;;;;5029108;28;20137;-83
2023/01/26 01:00:25;;;;;;;17.17;6.63;;;;;;;;;;5016581;28;20097;-83
2023/01/26 01:02:51;;;;;;;19.38;7.65;;;;;;;;;;5030758;28;20485;-82
2023/01/26 01:05:16;;;;;;;18.70;7.75;;;;;;;;;;4993064;28;20040;-84
2023/01/26 01:07:42;;;;;;;18.48;8.35;;;;;;;;;;5009557;28;20060;-84
2023/01/26 01:10:08;;;;;;;19.17;7.97;;;;;;;;;;5031252;28;20481;-83
2023/01/26 01:12:33;;;;;;;21.90;8.65;;;;;;;;;;5029077;28;20040;-84
2023/01/26 01:14:59;;;;;;;19.95;8.85;;;;;;;;;;5020394;28;20064;-83
2023/01/26 01:17:24;;;;;;;19.27;8.20;;;;;;;;;;5052634;28;20456;-84
2023/01/26 01:19:50;;;;;;;21.92;9.50;;;;;;;;;;5039714;28;20086;-85
2023/01/26 01:22:15;;;;;;;20.20;7.93;;;;;;;;;;5023511;28;20053;-85
2023/01/26 01:24:41;;;;;;;20.88;8.38;;;;;;;;;;5046717;28;20040;-84
2023/01/26 01:27:07;;;;;;;23.83;8.88;;;;;;;;;;5042937;28;20654;-84
2023/01/26 01:29:33;;;;;;;21.52;8.50;;;;;;;;;;5030615;28;20041;-82
2023/01/26 01:31:58;;;;;;;20.52;8.73;;;;;;;;;;5021292;28;20029;-83
2023/01/26 01:34:24;;;;;;;22.20;8.63;;;;;;;;;;5052353;28;20057;-83
2023/01/26 01:36:49;;;;;;;18.40;8.00;;;;;;;;;;5046027;28;20033;-83
2023/01/26 01:39:15;;;;;;;17.95;7.68;;;;;;;;;;5044891;28;20036;-83
2023/01/26 01:41:40;;;;;;;20.67;8.43;;;;;;;;;;5021676;28;20368;-83
2023/01/26 01:44:14;;;;;;;19.75;7.70;;;;;;;;;;5031893;28;20025;-84
2023/01/26 01:46:44;;;;;;;18.92;7.68;;;;;;;;;;5052173;28;20130;-83
2023/01/26 01:49:19;;;;;;;18.90;8.77;;;;;;;;;;5024989;28;20037;-82
2023/01/26 01:51:57;;;;;;;20.05;7.90;;;;;;;;;;5024317;28;20566;-83
2023/01/26 01:54:47;;;;;;;17.65;7.72;;;;;;;;;;5035063;28;20151;-83
2023/01/26 01:57:26;;;;;;;18.00;7.70;;;;;;;;;;5029695;28;20040;-83
2023/01/26 01:59:57;;;;;;;18.63;7.60;;;;;;;;;;5015861;28;20033;-83
2023/01/26 02:02:23;;;;;;;16.88;7.47;;;;;;;;;;5034771;28;20520;-83
2023/01/26 02:04:49;;;;;;;19.27;8.00;;;;;;;;;;5005201;28;20044;-83
2023/01/26 02:07:14;;;;;;;18.40;8.45;;;;;;;;;;5003681;28;20037;-84
2023/01/26 02:12:29;;;;;;;19.30;7.88;;;;;;;;;;5020679;28;20507;-83
2023/01/26 02:14:56;;;;;;;18.27;7.22;;;;;;;;;;5021375;28;20087;-84
2023/01/26 02:17:21;;;;;;;20.88;8.70;;;;;;;;;;5022332;28;20115;-85
2023/01/26 02:19:59;;;;;;;18.65;7.65;;;;;;;;;;5019906;28;20124;-84
2023/01/26 02:23:12;;;;;;;17.77;7.78;;;;;;;;;;5033794;28;20040;-85
2023/01/26 02:25:52;;;;;;;19.67;8.40;;;;;;;;;;4975681;28;20052;-84
2023/01/26 02:28:20;;;;;;;21.35;7.68;;;;;;;;;;4992929;28;20081;-83
2023/01/26 02:30:46;;;;;;;22.90;9.13;;;;;;;;;;5003845;28;20090;-84
2023/01/26 02:33:21;;;;;;;19.08;8.20;;;;;;;;;;5028416;28;20041;-85
2023/01/26 02:35:47;;;;;;;18.30;8.02;;;;;;;;;;5047102;28;20048;-85
2023/01/26 02:38:12;;;;;;;18.75;7.50;;;;;;;;;;5006954;28;20448;-83
2023/01/26 02:40:43;;;;;;;17.60;8.05;;;;;;;;;;5020332;28;20037;-83
2023/01/26 02:43:09;;;;;;;21.20;9.25;;;;;;;;;;5030963;28;20045;-83
2023/01/26 02:45:35;;;;;;;23.00;9.18;;;;;;;;;;5008036;28;20505;-83
2023/01/26 02:48:03;;;;;;;21.00;8.18;;;;;;;;;;5020356;28;20040;-82
2023/01/26 02:50:29;;;;;;;22.17;8.00;;;;;;;;;;5014353;28;20041;-84
2023/01/26 02:52:55;;;;;;;19.80;8.45;;;;;;;;;;5025659;28;20443;-82
2023/01/26 02:55:29;;;;;;;22.23;8.57;;;;;;;;;;5039998;28;20117;-83
2023/01/26 02:58:00;;;;;;;24.65;9.50;;;;;;;;;;5038372;28;20423;-82
2023/01/26 03:00:40;;;;;;;20.20;8.38;;;;;;;;;;5016064;28;20939;-84
2023/01/26 03:03:19;;;;;;;22.52;8.27;;;;;;;;;;5024001;28;20025;-82
2023/01/26 03:05:45;;;;;;;22.15;8.48;;;;;;;;;;5031351;28;20386;-83
2023/01/26 03:08:10;;;;;;;20.45;7.68;;;;;;;;;;5036279;28;20033;-83
2023/01/26 03:10:36;;;;;;;24.65;8.07;;;;;;;;;;5025338;28;20025;-84
2023/01/26 03:13:02;;;;;;;16.70;7.57;;;;;;;;;;5015875;28;20947;-83
2023/01/26 03:15:42;;;;;;;25.90;7.65;;;;;;;;;;4999842;28;20061;-83
2023/01/26 03:29:18;;;;;;;17.55;6.35;;;;;;;;;;5036349;28;20085;-85
2023/01/26 03:31:43;;;;;;;22.63;8.07;;;;;;;;;;5033677;28;20414;-85
2023/01/26 03:34:09;;;;;;;20.05;7.15;;;;;;;;;;5050133;28;20067;-83
2023/01/26 03:36:36;;;;;;;19.02;7.53;;;;;;;;;;5037317;28;20048;-83
2023/01/26 03:39:01;;;;;;;25.02;8.45;;;;;;;;;;5034630;28;20033;-82
2023/01/26 03:57:52;;;;;;;23.20;7.50;;;;;;;;;;5035988;28;20036;-84
2023/01/26 04:00:17;;;;;;;18.55;6.50;;;;;;;;;;5044124;28;20442;-84
2023/01/26 04:08:19;;;;;;;14.07;5.75;;;;;;;;;;5042656;28;20914;-84
2023/01/26 04:10:45;;;;;;;14.73;5.88;;;;;;;;;;5022700;28;20167;-83
2023/01/26 04:21:34;;;;;;;12.40;5.10;;;;;;;;;;5044946;28;20044;-84
2023/01/26 04:24:01;;;;;;;13.88;5.68;;;;;;;;;;5036864;28;20056;-84
2023/01/26 04:26:35;;;;;;;15.60;6.30;;;;;;;;;;5014165;28;20461;-83
2023/01/26 04:29:06;;;;;;;15.38;6.22;;;;;;;;;;5027807;28;20029;-82
2023/01/26 04:31:31;;;;;;;14.15;5.82;;;;;;;;;;5031069;28;20036;-83
2023/01/26 04:33:58;;;;;;;13.02;5.15;;;;;;;;;;5026134;28;20064;-82
2023/01/26 04:36:24;;;;;;;12.47;5.40;;;;;;;;;;5030342;28;20060;-82
2023/01/26 04:38:49;;;;;;;15.88;6.03;;;;;;;;;;5014809;28;20770;-82
2023/01/26 04:41:15;;;;;;;18.67;6.20;;;;;;;;;;5033367;28;20130;-82
2023/01/26 04:43:40;;;;;;;15.05;5.85;;;;;;;;;;5022167;28;20025;-82
2023/01/26 04:46:07;;;;;;;14.10;6.05;;;;;;;;;;5017658;28;20041;-82
2023/01/26 04:48:34;;;;;;;15.77;6.23;;;;;;;;;;5016543;28;20036;-82
2023/01/26 04:51:09;;;;;;;12.40;5.90;;;;;;;;;;5041434;28;20048;-82
2023/01/26 04:53:34;;;;;;;17.00;6.15;;;;;;;;;;5025946;28;21092;-83
2023/01/26 04:56:00;;;;;;;18.02;6.32;;;;;;;;;;5026420;28;20039;-82
2023/01/26 04:58:25;;;;;;;15.13;6.03;;;;;;;;;;5028293;28;20070;-82
2023/01/26 05:00:56;;;;;;;13.57;5.78;;;;;;;;;;5032464;28;20035;-81
2023/01/26 05:03:22;;;;;;;15.88;6.78;;;;;;;;;;5048810;28;20049;-81
2023/01/26 05:05:49;;;;;;;14.55;5.97;;;;;;;;;;5015406;28;20037;-81
2023/01/26 05:08:15;;;;;;;16.27;6.07;;;;;;;;;;5024666;28;20049;-82
2023/01/26 05:10:41;;;;;;;17.55;6.35;;;;;;;;;;5032619;28;20033;-81
2023/01/26 05:13:07;;;;;;;18.88;6.45;;;;;;;;;;5026685;28;20496;-81
2023/01/26 05:15:33;;;;;;;17.67;6.32;;;;;;;;;;5025404;28;20087;-81
2023/01/26 05:18:01;;;;;;;14.13;5.90;;;;;;;;;;5019247;28;20144;-83
2023/01/26 05:20:26;;;;;;;17.75;6.28;;;;;;;;;;5041569;28;20037;-81
2023/01/26 05:22:52;;;;;;;14.63;6.22;;;;;;;;;;5043098;28;20032;-82
2023/01/26 05:25:18;;;;;;;14.40;5.90;;;;;;;;;;5017298;28;20032;-82
2023/01/26 05:27:43;;;;;;;15.50;6.30;;;;;;;;;;5032921;28;20044;-81
2023/01/26 05:30:10;;;;;;;14.15;5.75;;;;;;;;;;5046903;28;20432;-86
2023/01/26 05:32:36;;;;;;;13.90;6.07;;;;;;;;;;5038724;28;20520;-85
2023/01/26 05:35:02;;;;;;;19.42;5.95;;;;;;;;;;5032778;28;20037;-83
2023/01/26 05:37:28;;;;;;;18.17;6.50;;;;;;;;;;5007587;28;20420;-83
2023/01/26 05:39:54;;;;;;;16.10;6.47;;;;;;;;;;5016021;28;20087;-82
2023/01/26 05:42:20;;;;;;;13.63;5.78;;;;;;;;;;5037956;28;20123;-82
2023/01/26 05:44:49;;;;;;;15.55;6.07;;;;;;;;;;5019257;28;20032;-82
2023/01/26 05:47:14;;;;;;;16.13;6.35;;;;;;;;;;5014105;28;20037;-84
2023/01/26 05:49:44;;;;;;;13.50;5.68;;;;;;;;;;5039595;28;20040;-83
2023/01/26 05:52:12;;;;;;;15.13;6.18;;;;;;;;;;5025160;28;20040;-84
2023/01/26 05:54:37;;;;;;;15.07;5.55;;;;;;;;;;5037951;28;20037;-83
2023/01/26 05:57:03;;;;;;;14.02;5.78;;;;;;;;;;5033513;28;20605;-81
2023/01/26 05:59:28;;;;;;;15.30;6.43;;;;;;;;;;5033987;28;20144;-81
2023/01/26 06:01:57;;;;;;;14.23;6.32;;;;;;;;;;5018176;28;20557;-81
2023/01/26 06:04:22;;;;;;;16.42;6.90;;;;;;;;;;5045944;28;20036;-81
2023/01/26 06:06:48;;;;;;;16.60;6.13;;;;;;;;;;5038405;28;20556;-82
2023/01/26 06:09:14;;;;;;;18.45;6.63;;;;;;;;;;5018990;28;20506;-82
2023/01/26 06:11:39;;;;;;;19.00;6.20;;;;;;;;;;5022077;28;20117;-82
2023/01/26 06:14:05;;;;;;;15.50;6.22;;;;;;;;;;5019748;28;20190;-81
2023/01/26 06:16:30;;;;;;;15.98;6.50;;;;;;;;;;5045856;28;20041;-82
2023/01/26 06:19:16;;;;;;;16.60;5.93;;;;;;;;;;5021874;28;20156;-81
2023/01/26 06:21:42;;;;;;;17.15;5.88;;;;;;;;;;4973493;28;20031;-81
2023/01/26 06:24:07;;;;;;;19.15;6.97;;;;;;;;;;4967777;28;20057;-83
2023/01/26 06:26:35;;;;;;;20.85;6.85;;;;;;;;;;4972474;28;20538;-83
2023/01/26 06:29:21;;;;;;;17.42;6.57;;;;;;;;;;4973562;28;20076;-82
2023/01/26 06:31:46;;;;;;;16.70;6.10;;;;;;;;;;4891887;29;20083;-83
2023/01/26 06:34:32;;;;;;;16.67;6.07;;;;;;;;;;4900285;29;20543;-83
2023/01/26 06:36:58;;;;;;;15.82;5.68;;;;;;;;;;4926916;28;20046;-82
2023/01/26 06:39:23;;;;;;;14.68;5.68;;;;;;;;;;4911963;28;20043;-82
2023/01/26 06:41:49;;;;;;;15.55;5.82;;;;;;;;;;4922791;28;20146;-82
2023/01/26 06:44:17;;;;;;;13.15;5.30;;;;;;;;;;4912415;29;20563;-82
2023/01/26 06:46:42;;;;;;;13.65;5.45;;;;;;;;;;4909504;28;20106;-80
2023/01/26 06:49:08;;;;;;;12.80;4.88;;;;;;;;;;4901652;28;20031;-81
2023/01/26 06:51:55;;;;;;;16.30;5.75;;;;;;;;;;4902441;29;20685;-81
2023/01/26 06:54:21;;;;;;;10.43;5.07;;;;;;;;;;4899960;28;20411;-80
2023/01/26 06:56:47;;;;;;;14.80;4.90;;;;;;;;;;4918407;29;20043;-81
2023/01/26 06:59:13;;;;;;;12.82;4.50;;;;;;;;;;4920223;28;20139;-81
2023/01/26 07:01:42;;;;;;;16.30;5.78;;;;;;;;;;4915338;28;20106;-84
2023/01/26 07:04:07;;;;;;;15.07;5.93;;;;;;;;;;4939117;28;20039;-82
2023/01/26 07:06:32;;;;;;;11.45;5.15;;;;;;;;;;4949491;28;20094;-82
2023/01/26 07:08:58;;;;;;;12.38;5.15;;;;;;;;;;4987487;28;20114;-83
2023/01/26 07:11:24;;;;;;;13.50;5.00;;;;;;;;;;5011970;28;20064;-82
2023/01/26 07:14:10;;;;;;;14.65;5.18;;;;;;;;;;4997666;28;20693;-82
2023/01/26 07:16:35;;;;;;;13.48;5.05;;;;;;;;;;4983649;28;20489;-82
2023/01/26 07:19:00;;;;;;;15.52;5.57;;;;;;;;;;4957163;28;20076;-82
2023/01/26 07:21:26;;;;;;;14.48;5.65;;;;;;;;;;4956604;28;20125;-81
2023/01/26 07:23:52;;;;;;;11.30;5.03;;;;;;;;;;4982549;28;20038;-81
2023/01/26 07:26:17;;;;;;;13.05;5.35;;;;;;;;;;4952394;28;20046;-81
2023/01/26 07:29:03;;;;;;;11.85;5.25;;;;;;;;;;4965524;28;20073;-83
2023/01/26 07:31:28;;;;;;;13.13;5.40;;;;;;;;;;4928358;28;20534;-82
2023/01/26 07:33:54;;;;;;;12.68;5.20;;;;;;;;;;4916670;28;20047;-83
2023/01/26 07:36:19;;;;;;;14.00;4.90;;;;;;;;;;4935724;28;20047;-82
2023/01/26 07:38:45;;;;;;;13.27;5.80;;;;;;;;;;4939270;28;20045;-82
2023/01/26 07:41:11;;;;;;;12.77;5.28;;;;;;;;;;4938338;28;20030;-81
2023/01/26 07:43:41;;;;;;;11.48;4.90;;;;;;;;;;4946544;28;20050;-82
2023/01/26 07:46:07;;;;;;;12.20;5.00;;;;;;;;;;4961573;28;20233;-82
2023/01/26 07:48:33;;;;;;;12.30;5.38;;;;;;;;;;4940150;28;20034;-82
2023/01/26 07:51:00;;;;;;;12.25;5.63;;;;;;;;;;4961263;28;20510;-82
2023/01/26 07:53:28;;;;;;;12.63;4.55;;;;;;;;;;4943582;28;20547;-82
2023/01/26 07:55:55;;;;;;;11.27;4.95;;;;;;;;;;4986457;28;20087;-81
2023/01/26 07:58:20;;;;;;;10.48;3.78;;;;;;;;;;4964301;28;20077;-82
2023/01/26 08:00:46;;;;;;;9.27;4.00;;;;;;;;;;4979943;28;20073;-82
2023/01/26 08:03:12;;;;;;;14.77;5.43;;;;;;;;;;4988265;28;20042;-82
2023/01/26 08:05:38;;;;;;;14.57;5.95;;;;;;;;;;4967998;28;20034;-84
2023/01/26 08:08:04;;;;;;;12.75;5.38;;;;;;;;;;4948461;28;20476;-83
2023/01/26 08:10:32;;;;;;;14.10;5.65;;;;;;;;;;5008232;28;20038;-83
2023/01/26 08:13:01;;;;;;;13.20;5.43;;;;;;;;;;5043050;28;20057;-83
2023/01/26 08:15:27;;;;;;;13.85;5.25;;;;;;;;;;5021909;28;21069;-84
2023/01/26 08:17:53;;;;;;;11.98;5.22;;;;;;;;;;5040482;28;20040;-82
2023/01/26 08:20:19;;;;;;;10.48;5.10;;;;;;;;;;5025924;28;20040;-83
2023/01/26 08:22:45;;;;;;;12.98;5.25;;;;;;;;;;5019765;28;20073;-83
2023/01/26 08:25:10;;;;;;;12.88;5.53;;;;;;;;;;5031862;28;20033;-84
2023/01/26 08:27:36;;;;;;;12.95;5.30;;;;;;;;;;5041372;28;20149;-82
2023/01/26 08:30:01;;;;;;;11.88;5.20;;;;;;;;;;5021285;28;20037;-83
2023/01/26 08:32:28;;;;;;;15.27;5.30;;;;;;;;;;5015746;28;20037;-84
2023/01/26 08:34:54;;;;;;;13.57;5.35;;;;;;;;;;5034187;28;20040;-84
2023/01/26 08:37:19;;;;;;;11.85;5.32;;;;;;;;;;5017465;28;20354;-84
2023/01/26 08:39:45;;;;;;;14.57;5.30;;;;;;;;;;5042985;28;20029;-84
2023/01/26 08:42:10;;;;;;;12.05;5.60;;;;;;;;;;5025787;28;20132;-83
2023/01/26 08:44:36;;;;;;;14.13;5.60;;;;;;;;;;5027380;28;20064;-85
2023/01/26 08:47:01;;;;;;;13.98;6.18;;;;;;;;;;5043587;28;20037;-83
2023/01/26 08:49:27;;;;;;;13.60;5.72;;;;;;;;;;5043937;28;20044;-83
2023/01/26 08:51:53;;;;;;;12.98;5.32;;;;;;;;;;5032729;28;20036;-84
2023/01/26 08:54:18;;;;;;;11.15;5.13;;;;;;;;;;5017742;28;20527;-84
2023/01/26 08:56:43;;;;;;;13.57;6.13;;;;;;;;;;5048304;28;20032;-83
2023/01/26 08:59:09;;;;;;;12.82;6.13;;;;;;;;;;5015985;28;20041;-83
2023/01/26 09:01:34;;;;;;;13.32;6.07;;;;;;;;;;5039563;28;20040;-84
2023/01/26 09:04:01;;;;;;;13.40;6.05;;;;;;;;;;5037653;28;20036;-83
2023/01/26 09:06:27;;;;;;;14.48;6.18;;;;;;;;;;5026440;28;20401;-84
2023/01/26 09:08:52;;;;;;;13.60;5.88;;;;;;;;;;5032819;28;20151;-84
2023/01/26 09:11:18;;;;;;;13.55;6.13;;;;;;;;;;5026201;28;20036;-84
2023/01/26 09:13:43;;;;;;;14.77;6.30;;;;;;;;;;5032303;28;20064;-84
2023/01/26 09:16:14;;;;;;;12.55;6.07;;;;;;;;;;5033356;28;20021;-82
2023/01/26 09:18:40;;;;;;;14.02;6.18;;;;;;;;;;5024917;28;20044;-84
2023/01/26 09:21:11;;;;;;;13.27;6.72;;;;;;;;;;5043253;28;20022;-89
2023/01/26 09:23:39;;;;;;;12.07;5.95;;;;;;;;;;5039239;28;20373;-87
2023/01/26 09:26:04;;;;;;;11.43;5.45;;;;;;;;;;5023428;28;20032;-86
2023/01/26 09:28:30;;;;;;;10.15;4.88;;;;;;;;;;5011114;28;20203;-84
2023/01/26 09:31:01;;;;;;;11.23;5.20;;;;;;;;;;5029012;28;20120;-85
2023/01/26 09:33:32;;;;;;;10.48;5.00;;;;;;;;;;5032731;28;20040;-83
2023/01/26 09:36:07;;;;;;;9.18;4.28;;;;;;;;;;5046289;28;20037;-84
2023/01/26 09:38:33;;;;;;;9.65;4.40;;;;;;;;;;5035287;28;20445;-85
2023/01/26 09:41:01;;;;;;;11.00;4.47;;;;;;;;;;5020849;28;20127;-85
2023/01/26 09:43:38;;;;;;;8.43;4.38;;;;;;;;;;5043468;28;20069;-85
2023/01/26 09:46:22;;;;;;;11.52;5.00;;;;;;;;;;5005151;28;20029;-84
2023/01/26 09:48:56;;;;;;;10.88;5.00;;;;;;;;;;5052297;28;20040;-84
2023/01/26 09:51:34;;;;;;;9.60;4.40;;;;;;;;;;5048575;28;20045;-84
2023/01/26 09:54:02;;;;;;;8.10;4.18;;;;;;;;;;5033349;28;20041;-82
2023/01/26 09:56:31;;;;;;;8.52;4.30;;;;;;;;;;5014721;28;20071;-83
2023/01/26 09:59:35;;;;;;;8.23;4.13;;;;;;;;;;5020472;28;20028;-83
2023/01/26 10:02:09;;;;;;;9.63;4.28;;;;;;;;;;5044812;28;20060;-85
2023/01/26 10:04:36;;;;;;;10.18;4.57;;;;;;;;;;5016374;28;20041;-84
2023/01/26 10:07:11;;;;;;;9.07;4.80;;;;;;;;;;5033651;28;20036;-84
2023/01/26 10:09:38;;;;;;;9.30;4.68;;;;;;;;;;5035804;28;20052;-84
2023/01/26 10:12:06;;;;;;;9.13;4.30;;;;;;;;;;5045316;28;20508;-83
2023/01/26 10:14:49;;;;;;;9.13;4.60;;;;;;;;;;5035692;28;20416;-83
2023/01/26 10:17:20;;;;;;;9.05;4.28;;;;;;;;;;5052321;28;20825;-84
2023/01/26 10:19:49;;;;;;;8.55;4.25;;;;;;;;;;5035559;28;20703;-85
2023/01/26 10:22:44;;;;;;;9.32;4.65;;;;;;;;;;5023543;28;20040;-84
2023/01/26 10:25:19;;;;;;;9.10;4.63;;;;;;;;;;5034797;28;20396;-86
2023/01/26 10:27:45;;;;;;;12.30;4.47;;;;;;;;;;5025339;28;20114;-84
2023/01/26 10:30:15;;;;;;;10.35;4.45;;;;;;;;;;5028608;28;21071;-84
2023/01/26 10:32:42;;;;;;;9.98;4.45;;;;;;;;;;5027959;28;21568;-84
2023/01/26 10:35:28;;;;;;;12.55;5.45;;;;;;;;;;5046150;28;20040;-84
2023/01/26 10:37:55;;;;;;;10.85;4.80;;;;;;;;;;5038097;28;20648;-84
2023/01/26 10:40:20;;;;;;;9.27;4.77;;;;;;;;;;5027855;28;20123;-85
2023/01/26 10:42:59;;;;;;;12.45;5.78;;;;;;;;;;5038506;28;20351;-84
2023/01/26 10:45:24;;;;;;;11.23;4.90;;;;;;;;;;5049496;28;20048;-84
2023/01/26 10:48:01;;;;;;;11.07;5.47;;;;;;;;;;5031139;28;20036;-83
2023/01/26 10:50:26;;;;;;;11.70;5.07;;;;;;;;;;5039700;28;20044;-84
2023/01/26 10:52:57;;;;;;;12.52;5.32;;;;;;;;;;5037098;28;20033;-84
2023/01/26 10:55:23;;;;;;;11.60;4.90;;;;;;;;;;5023302;28;20131;-84
2023/01/26 10:57:48;;;;;;;14.68;5.78;;;;;;;;;;5013598;28;20124;-83
2023/01/26 11:00:20;;;;;;;11.20;4.78;;;;;;;;;;5000653;28;20435;-83
2023/01/26 11:03:04;;;;;;;12.85;5.38;;;;;;;;;;5028330;28;20955;-86
2023/01/26 11:05:31;;;;;;;10.52;5.00;;;;;;;;;;5024069;28;20047;-85
2023/01/26 11:08:01;;;;;;;;;;;;;;;;;;4996130;28;20461;-85
2023/01/26 11:10:33;;;;;;;13.73;5.18;;;;;;;;;;5016089;28;19956;-88
2023/01/26 11:13:16;;;;;;;14.70;5.68;;;;;;;;;;4995511;28;20083;-86
2023/01/26 11:15:44;;;;;;;12.18;5.93;;;;;;;;;;5033396;28;20048;-86
2023/01/26 11:18:53;;;;;;;12.85;5.72;;;;;;;;;;5031520;28;20044;-88
2023/01/26 11:22:00;;;;;;;12.70;5.25;;;;;;;;;;4991284;28;20037;-89
2023/01/26 11:25:07;;;;;;;13.77;5.75;;;;;;;;;;5007799;28;20056;-88
2023/01/26 11:27:35;;;;;;;;;;;;;;;;;;5023695;28;20464;-87
2023/01/26 11:30:17;;;;;;;13.43;5.25;;;;;;;;;;4998828;28;19917;-86
2023/01/26 11:32:55;;;;;;;14.95;6.30;;;;;;;;;;5018135;28;20513;-87
2023/01/26 11:35:52;;;;;;;11.80;5.78;;;;;;;;;;5020935;28;20528;-88
2023/01/26 11:38:30;;;;;;;13.68;5.57;;;;;;;;;;5024600;28;20029;-88
2023/01/26 11:40:58;;;;;;;14.02;5.53;;;;;;;;;;5005479;28;20164;-85
2023/01/26 11:43:51;;;;;;;11.23;4.80;;;;;;;;;;5024325;28;20037;-85
2023/01/26 11:46:37;;;;;;;9.85;4.07;;;;;;;;;;4999209;28;20121;-87
2023/01/26 11:49:21;;;;;;;9.73;3.72;;;;;;;;;;5021848;28;20469;-87
2023/01/26 11:52:03;;;;;;;8.75;3.65;;;;;;;;;;5022648;28;20043;-87
2023/01/26 11:54:41;;;;;;;8.82;4.13;;;;;;;;;;4995971;28;20571;-86
2023/01/26 11:57:09;;;;;;;10.68;3.78;;;;;;;;;;5049189;28;20565;-87
2023/01/26 11:59:41;;;;;;;6.93;3.40;;;;;;;;;;5050000;28;20052;-85
2023/01/26 12:02:24;;;;;;;8.90;3.80;;;;;;;;;;5022723;28;20097;-87
2023/01/26 12:04:51;;;;;;;7.00;3.22;;;;;;;;;;5052683;28;20037;-87
2023/01/26 12:07:50;;;;;;;6.72;3.00;;;;;;;;;;5036640;28;20032;-86
2023/01/26 12:10:16;;;;;;;6.43;2.90;;;;;;;;;;5039639;28;20095;-88
2023/01/26 12:12:56;;;;;;;6.07;2.90;;;;;;;;;;5035163;28;20483;-86
2023/01/26 12:15:27;;;;;;;6.85;3.40;;;;;;;;;;5048702;28;20396;-87
2023/01/26 12:18:05;;;;;;;6.25;3.15;;;;;;;;;;5025967;28;20033;-87
2023/01/26 12:20:38;;;;;;;6.00;2.88;;;;;;;;;;5023055;28;20033;-88
2023/01/26 12:23:07;;;;;;;6.63;3.28;;;;;;;;;;5036464;28;20036;-88
2023/01/26 12:25:38;;;;;;;8.15;3.10;;;;;;;;;;5053624;28;20040;-88
2023/01/26 12:28:13;;;;;;;6.05;2.80;;;;;;;;;;5043222;28;20534;-87
2023/01/26 12:31:16;;;;;;;6.93;3.05;;;;;;;;;;5040787;28;20556;-87
2023/01/26 12:33:42;;;;;;;6.70;3.15;;;;;;;;;;5027138;28;20042;-86
2023/01/26 12:36:22;;;;;;;9.23;4.40;;;;;;;;;;5008186;28;20040;-87
2023/01/26 12:39:17;;;;;;;6.97;3.38;;;;;;;;;;5045217;28;20047;-86
2023/01/26 12:42:19;;;;;;;8.32;3.70;;;;;;;;;;5050965;28;20476;-86
2023/01/26 12:44:59;;;;;;;9.30;4.10;;;;;;;;;;5026797;28;20044;-87
2023/01/26 12:47:41;;;;;;;8.45;4.07;;;;;;;;;;5029303;28;20029;-87
2023/01/26 12:50:18;;;;;;;7.75;3.55;;;;;;;;;;5032648;28;20029;-88
2023/01/26 12:52:53;;;;;;;8.32;4.15;;;;;;;;;;5033864;28;20037;-88
2023/01/26 12:55:22;;;;;;;6.20;3.33;;;;;;;;;;5023840;28;20044;-89
2023/01/26 12:57:53;;;;;;;7.47;3.58;;;;;;;;;;5050035;28;20384;-89
2023/01/26 13:00:57;;;;;;;9.45;4.38;;;;;;;;;;5017941;28;20470;-90
2023/01/26 13:03:32;;;;;;;10.18;3.65;;;;;;;;;;5044344;28;20082;-89
2023/01/26 13:06:24;;;;;;;8.60;4.13;;;;;;;;;;5024620;28;20314;-88
2023/01/26 13:08:56;;;;;;;8.05;3.92;;;;;;;;;;5009220;28;20043;-88
2023/01/26 13:11:43;;;;;;;8.88;4.20;;;;;;;;;;5052199;28;20780;-86
2023/01/26 13:14:37;;;;;;;7.80;3.72;;;;;;;;;;5032666;28;20037;-88
2023/01/26 13:17:15;;;;;;;9.63;3.67;;;;;;;;;;5050848;28;20087;-89
2023/01/26 13:19:42;;;;;;;;;;;;;;;;;;5028675;28;20098;-90
2023/01/26 13:22:17;;;;;;;8.85;4.18;;;;;;;;;;5025113;28;19964;-89
2023/01/26 13:24:47;;;;;;;10.18;4.25;;;;;;;;;;5042965;28;20042;-88
2023/01/26 13:27:41;;;;;;;8.18;4.28;;;;;;;;;;5018739;28;20131;-88
2023/01/26 13:30:22;;;;;;;8.57;4.30;;;;;;;;;;5048884;28;20488;-88
2023/01/26 13:32:48;;;;;;;8.20;4.13;;;;;;;;;;5052363;28;20583;-88
2023/01/26 13:35:22;;;;;;;8.32;4.22;;;;;;;;;;5020847;28;20136;-89
2023/01/26 13:38:06;;;;;;;9.85;4.35;;;;;;;;;;5008517;28;20033;-88
2023/01/26 13:40:39;;;;;;;11.02;3.80;;;;;;;;;;5008129;28;20044;-88
2023/01/26 13:43:12;;;;;;;9.80;4.00;;;;;;;;;;5001192;28;20125;-88
2023/01/26 13:45:42;;;;;;;9.48;4.45;;;;;;;;;;5025540;28;20582;-87
2023/01/26 13:48:18;;;;;;;10.90;4.82;;;;;;;;;;5032443;28;20517;-87
2023/01/26 13:50:45;;;;;;;10.80;5.15;;;;;;;;;;5000136;28;20034;-88
2023/01/26 13:53:49;;;;;;;9.85;4.47;;;;;;;;;;5027656;28;20052;-88
2023/01/26 13:56:28;;;;;;;11.30;5.25;;;;;;;;;;5031000;28;20140;-88
2023/01/26 13:59:04;;;;;;;10.93;5.43;;;;;;;;;;5002005;28;20037;-86
2023/01/26 14:01:30;;;;;;;13.52;5.82;;;;;;;;;;5005953;28;20033;-88
2023/01/26 14:04:04;;;;;;;12.10;5.50;;;;;;;;;;4997117;28;20029;-87
2023/01/26 14:06:30;;;;;;;11.63;5.07;;;;;;;;;;5028662;28;20132;-92
2023/01/26 14:08:58;;;;;;;11.93;5.47;;;;;;;;;;5009882;28;20100;-88
2023/01/26 14:11:26;;;;;;;12.20;5.63;;;;;;;;;;5003369;28;20145;-89
2023/01/26 14:13:56;;;;;;;10.70;5.03;;;;;;;;;;5025490;28;20033;-90
2023/01/26 14:16:37;;;;;;;13.43;5.70;;;;;;;;;;5016188;28;20602;-91
2023/01/26 14:19:16;;;;;;;11.70;5.72;;;;;;;;;;4999078;28;20034;-92
2023/01/26 14:21:50;;;;;;;13.48;5.82;;;;;;;;;;5013956;28;20024;-90
2023/01/26 14:24:25;;;;;;;15.93;6.35;;;;;;;;;;4998972;28;20033;-91
2023/01/26 14:26:51;;;;;;;14.70;5.70;;;;;;;;;;4997077;28;20048;-82
2023/01/26 14:29:30;;;;;;;14.02;5.50;;;;;;;;;;5006837;28;20036;-82
2023/01/26 14:31:57;;;;;;;17.42;6.88;;;;;;;;;;5013431;28;20037;-82
2023/01/26 14:34:24;;;;;;;;;;;;;;;;;;5045038;28;20393;-82
2023/01/26 14:37:16;;;;;;;16.57;6.33;;;;;;;;;;5017151;28;19916;-89
2023/01/26 14:39:43;;;;;;;16.45;7.15;;;;;;;;;;5058111;28;20354;-90
2023/01/26 14:42:14;;;;;;;13.27;6.00;;;;;;;;;;5055105;28;20088;-90
2023/01/26 14:44:43;;;;;;;17.67;7.13;;;;;;;;;;5056014;28;20037;-90
2023/01/26 14:47:25;;;;;;;17.33;6.70;;;;;;;;;;5057586;28;20056;-88
2023/01/26 14:49:53;;;;;;;14.93;7.63;;;;;;;;;;5028982;28;20048;-89
2023/01/26 14:52:31;;;;;;;18.13;7.20;;;;;;;;;;5031486;28;20036;-91
2023/01/26 14:54:57;;;;;;;;;;;;;;;;;;5044421;28;20078;-89
2023/01/26 14:57:30;;;;;;;14.70;7.30;;;;;;;;;;5022889;28;19939;-91
2023/01/26 14:59:58;;;;;;;16.23;6.78;;;;;;;;;;5024741;28;20059;-89
2023/01/26 15:02:36;;;;;;;17.33;7.07;;;;;;;;;;5035820;28;20029;-89
2023/01/26 15:05:09;;;;;;;20.10;8.25;;;;;;;;;;5023796;28;20025;-89
2023/01/26 15:07:54;;;;;;;17.73;7.30;;;;;;;;;;5025721;28;20484;-88
2023/01/26 15:10:35;;;;;;;15.90;7.43;;;;;;;;;;5016160;28;20064;-91
2023/01/26 15:13:21;;;;;;;16.42;7.90;;;;;;;;;;5038860;28;20040;-88
2023/01/26 15:16:01;;;;;;;16.95;7.63;;;;;;;;;;5030046;28;20043;-88
2023/01/26 15:18:31;;;;;;;15.07;7.15;;;;;;;;;;5016587;28;20068;-90
2023/01/26 15:21:17;;;;;;;17.45;8.13;;;;;;;;;;5042548;28;20087;-89
2023/01/26 15:23:45;;;;;;;15.30;6.67;;;;;;;;;;5013756;28;20503;-89
2023/01/26 15:26:30;;;;;;;16.20;6.72;;;;;;;;;;5021038;28;20318;-87
2023/01/26 15:28:58;;;;;;;19.10;7.57;;;;;;;;;;5021991;28;20067;-87
2023/01/26 15:31:32;;;;;;;14.48;6.60;;;;;;;;;;5039251;28;20041;-89
2023/01/26 15:34:00;;;;;;;14.13;6.05;;;;;;;;;;5031766;28;20041;-89
2023/01/26 15:36:32;;;;;;;15.02;6.40;;;;;;;;;;5026518;28;20037;-88
2023/01/26 15:39:05;;;;;;;12.90;5.38;;;;;;;;;;5024301;28;20041;-88
2023/01/26 15:41:33;;;;;;;14.10;6.18;;;;;;;;;;4975753;28;20040;-88